Wetterdaten: Woche 03.05.10 - 09.05.10 (KW18)
Datum Zeit Temp. A. Feuchte A. Luftdruck Regen Wind Richtung Taupunkt Windchill Windben
03.05.2010 00:00 9,3 C 91 % 1008,4 hPa 0,0 l/m 0,0 km/h O-NO 7,9 C 9,3 C 0,0 km/h
03.05.2010 01:00 9,0 C 91 % 1008,4 hPa 0,0 l/m 0,0 km/h S-SO 7,6 C 9,0 C 0,0 km/h
03.05.2010 02:00 9,0 C 92 % 1008,1 hPa 0,0 l/m 0,0 km/h SO 7,8 C 9,0 C 0,0 km/h
03.05.2010 03:00 6,9 C 92 % 1008,0 hPa 0,0 l/m 0,0 km/h O-SO 5,7 C 6,9 C 0,0 km/h
03.05.2010 04:00 6,7 C 92 % 1008,1 hPa 0,0 l/m 0,0 km/h O-NO 5,5 C 6,7 C 0,0 km/h
03.05.2010 05:00 6,4 C 93 % 1008,0 hPa 0,0 l/m 0,0 km/h O-NO 5,4 C 6,4 C 0,0 km/h
03.05.2010 06:00 7,3 C 93 % 1008,0 hPa 0,0 l/m 0,0 km/h NO 6,2 C 7,3 C 0,0 km/h
03.05.2010 07:00 9,4 C 94 % 1008,5 hPa 0,0 l/m 0,0 km/h NO 8,5 C 9,4 C 0,0 km/h
03.05.2010 08:00 10,4 C 90 % 1008,8 hPa 0,0 l/m 0,0 km/h N-NO 8,8 C 10,4 C 0,0 km/h
03.05.2010 09:00 12,4 C 83 % 1008,8 hPa 0,0 l/m 0,0 km/h NO 9,6 C 12,4 C 0,0 km/h
03.05.2010 10:00 13,1 C 79 % 1009,7 hPa 0,0 l/m 0,0 km/h NO 9,5 C 13,1 C 0,0 km/h
03.05.2010 11:00 16,9 C 65 % 1009,7 hPa 0,0 l/m 0,0 km/h O 10,3 C 16,9 C 0,0 km/h
03.05.2010 12:00 16,1 C 66 % 1009,3 hPa 0,4 l/m 0,0 km/h W-NW 9,7 C 16,1 C 0,0 km/h
03.05.2010 13:00 17,7 C 57 % 1008,9 hPa 0,0 l/m 0,0 km/h NO 9,1 C 17,7 C 0,0 km/h
03.05.2010 14:00 15,1 C 62 % 1009,6 hPa 0,0 l/m 14,3 km/h N-NW 7,9 C 11,5 C 7,9 km/h
03.05.2010 15:00 13,0 C 65 % 1010,3 hPa 0,0 l/m 3,2 km/h O-NO 6,6 C 13,0 C 1,8 km/h
03.05.2010 16:00 12,5 C 80 % 1010,5 hPa 2,1 l/m 0,0 km/h NO 9,1 C 12,5 C 0,0 km/h
03.05.2010 17:00 17,4 C 62 % 1010,4 hPa 0,0 l/m 0,0 km/h NO 10,0 C 17,4 C 0,0 km/h
03.05.2010 18:00 13,0 C 75 % 1010,8 hPa 0,0 l/m 0,0 km/h O-NO 8,7 C 13,0 C 0,0 km/h
03.05.2010 19:00 11,4 C 80 % 1011,0 hPa 0,0 l/m 0,0 km/h NO 8,1 C 11,4 C 0,0 km/h
03.05.2010 20:00 10,1 C 84 % 1011,7 hPa 0,0 l/m 0,0 km/h N-NO 7,5 C 10,1 C 0,0 km/h
03.05.2010 21:00 9,5 C 85 % 1012,1 hPa 0,0 l/m 0,0 km/h NO 7,1 C 9,5 C 0,0 km/h
03.05.2010 22:00 9,1 C 87 % 1012,4 hPa 0,0 l/m 0,0 km/h N-NO 7,1 C 9,1 C 0,0 km/h
03.05.2010 23:00 9,1 C 87 % 1012,8 hPa 0,0 l/m 0,0 km/h N-NO 7,1 C 9,1 C 0,0 km/h
04.05.2010 00:00 8,9 C 86 % 1013,0 hPa 0,0 l/m 0,0 km/h N-NO 6,7 C 8,9 C 0,0 km/h
04.05.2010 01:00 8,4 C 88 % 1012,8 hPa 0,0 l/m 0,0 km/h NO 6,5 C 8,4 C 0,0 km/h
04.05.2010 02:00 8,3 C 90 % 1012,7 hPa 0,0 l/m 0,0 km/h NO 6,8 C 8,3 C 0,0 km/h
04.05.2010 03:00 8,1 C 90 % 1012,2 hPa 0,0 l/m 0,0 km/h N-NO 6,6 C 8,1 C 0,0 km/h
04.05.2010 04:00 8,3 C 90 % 1012,0 hPa 0,0 l/m 0,0 km/h N-NW 6,8 C 8,3 C 0,0 km/h
04.05.2010 05:00 8,4 C 89 % 1011,8 hPa 0,0 l/m 0,0 km/h N-NO 6,7 C 8,4 C 0,0 km/h
04.05.2010 06:00 8,3 C 89 % 1011,9 hPa 0,4 l/m 0,0 km/h N-NO 6,6 C 8,3 C 0,0 km/h
04.05.2010 07:00 8,9 C 88 % 1011,9 hPa 0,0 l/m 3,2 km/h N-NO 7,0 C 8,9 C 1,8 km/h
04.05.2010 08:00 10,1 C 82 % 1011,7 hPa 0,0 l/m 7,1 km/h N 7,2 C 9,6 C 4,0 km/h
04.05.2010 09:00 11,5 C 75 % 1011,2 hPa 0,0 l/m 25,3 km/h N 7,2 C 3,8 C 14,0 km/h
04.05.2010 10:00 12,2 C 73 % 1011,3 hPa 0,0 l/m 0,0 km/h N 7,5 C 12,2 C 0,0 km/h
04.05.2010 11:00 13,2 C 70 % 1011,1 hPa 0,0 l/m 2,6 km/h N-NO 7,9 C 13,2 C 1,4 km/h
04.05.2010 12:00 12,9 C 70 % 1010,7 hPa 0,0 l/m 0,0 km/h N 7,6 C 12,9 C 0,0 km/h
04.05.2010 13:00 12,6 C 69 % 1010,5 hPa 0,0 l/m 1,3 km/h N-NO 7,1 C 12,6 C 0,7 km/h
04.05.2010 14:00 12,6 C 70 % 1010,4 hPa 0,0 l/m 0,0 km/h O-NO 7,3 C 12,6 C 0,0 km/h
04.05.2010 15:00 12,7 C 69 % 1009,6 hPa 0,0 l/m 0,0 km/h N-NW 7,2 C 12,7 C 0,0 km/h
04.05.2010 16:00 12,6 C 69 % 1009,6 hPa 0,0 l/m 1,9 km/h N-NO 7,1 C 12,6 C 1,1 km/h
04.05.2010 17:00 11,9 C 74 % 1009,6 hPa 0,0 l/m 5,8 km/h N-NW 7,4 C 11,9 C 3,2 km/h
04.05.2010 18:00 10,7 C 82 % 1009,4 hPa 0,4 l/m 1,9 km/h N 7,8 C 10,7 C 1,1 km/h
04.05.2010 19:00 10,4 C 85 % 1009,4 hPa 0,4 l/m 0,0 km/h N 8,0 C 10,4 C 0,0 km/h
04.05.2010 20:00 10,9 C 83 % 1009,6 hPa 0,0 l/m 4,5 km/h N-NO 8,1 C 10,9 C 2,5 km/h
04.05.2010 21:00 11,3 C 79 % 1009,7 hPa 0,0 l/m 3,2 km/h N 7,8 C 11,3 C 1,8 km/h
04.05.2010 22:00 11,1 C 79 % 1009,8 hPa 0,0 l/m 7,8 km/h N-NO 7,6 C 10,1 C 4,3 km/h
04.05.2010 23:00 10,7 C 79 % 1010,5 hPa 0,0 l/m 1,3 km/h NO 7,2 C 10,7 C 0,7 km/h
05.05.2010 00:00 10,2 C 79 % 1010,7 hPa 0,0 l/m 2,6 km/h NO 6,7 C 10,2 C 1,4 km/h
05.05.2010 01:00 9,8 C 79 % 1010,2 hPa 0,0 l/m 14,3 km/h NO 6,3 C 5,2 C 7,9 km/h
05.05.2010 02:00 9,4 C 80 % 1009,8 hPa 0,0 l/m 17,5 km/h N-NO 6,1 C 3,4 C 9,7 km/h
05.05.2010 03:00 9,2 C 80 % 1010,0 hPa 0,0 l/m 7,8 km/h NO 5,9 C 8,2 C 4,3 km/h
05.05.2010 04:00 8,9 C 78 % 1009,7 hPa 0,0 l/m 0,6 km/h N-NO 5,3 C 8,9 C 0,4 km/h
05.05.2010 05:00 8,7 C 77 % 1009,3 hPa 0,0 l/m 1,9 km/h N 4,9 C 8,7 C 1,1 km/h
05.05.2010 06:00 8,4 C 78 % 1009,4 hPa 0,0 l/m 0,6 km/h SO 4,8 C 8,4 C 0,4 km/h
05.05.2010 07:00 8,1 C 76 % 1008,2 hPa 0,0 l/m 3,2 km/h N 4,1 C 8,1 C 1,8 km/h
05.05.2010 08:00 7,9 C 76 % 1008,4 hPa 0,0 l/m 21,4 km/h N-NW 3,9 C 0,1 C 11,9 km/h
05.05.2010 09:00 7,9 C 78 % 1007,6 hPa 0,0 l/m 20,7 km/h N-NO 4,3 C 0,3 C 11,5 km/h
05.05.2010 10:00 9,3 C 71 % 1007,6 hPa 0,0 l/m 16,8 km/h O-NO 4,3 C 3,5 C 9,4 km/h
05.05.2010 11:00 9,1 C 72 % 1007,3 hPa 0,0 l/m 17,5 km/h N 4,3 C 3,0 C 9,7 km/h
05.05.2010 12:00 8,6 C 72 % 1006,6 hPa 0,0 l/m 0,0 km/h N 3,8 C 8,6 C 0,0 km/h
05.05.2010 13:00 8,7 C 74 % 1005,9 hPa 0,0 l/m 0,0 km/h N 4,3 C 8,7 C 0,0 km/h
05.05.2010 14:00 8,5 C 74 % 1005,7 hPa 0,0 l/m 4,5 km/h N 4,1 C 8,5 C 2,5 km/h
05.05.2010 15:00 8,9 C 74 % 1004,9 hPa 0,0 l/m 1,3 km/h NO 4,5 C 8,9 C 0,7 km/h
05.05.2010 16:00 9,8 C 74 % 1004,0 hPa 0,0 l/m 10,4 km/h N-NO 5,4 C 7,1 C 5,8 km/h
05.05.2010 17:00 9,9 C 74 % 1003,6 hPa 0,0 l/m 5,2 km/h N-NO 5,5 C 9,9 C 2,9 km/h
05.05.2010 18:00 9,8 C 76 % 1003,2 hPa 0,0 l/m 0,0 km/h N-NO 5,8 C 9,8 C 0,0 km/h
05.05.2010 19:00 9,5 C 79 % 1003,6 hPa 0,0 l/m 0,0 km/h NO 6,0 C 9,5 C 0,0 km/h
05.05.2010 20:00 8,5 C 84 % 1003,6 hPa 0,0 l/m 0,0 km/h N 6,0 C 8,5 C 0,0 km/h
05.05.2010 21:00 8,4 C 86 % 1003,1 hPa 0,0 l/m 3,9 km/h N 6,2 C 8,4 C 2,2 km/h
05.05.2010 22:00 8,4 C 89 % 1002,3 hPa 0,0 l/m 0,6 km/h NO 6,7 C 8,4 C 0,4 km/h
05.05.2010 23:00 8,6 C 88 % 1002,0 hPa 0,0 l/m 0,0 km/h N-NO 6,7 C 8,6 C 0,0 km/h
06.05.2010 00:00 8,5 C 88 % 1001,5 hPa 0,0 l/m 0,0 km/h N-NO 6,6 C 8,5 C 0,0 km/h
06.05.2010 01:00 8,2 C 87 % 1001,2 hPa 0,0 l/m 0,0 km/h N-NO 6,2 C 8,2 C 0,0 km/h
06.05.2010 02:00 8,1 C 86 % 1001,3 hPa 0,0 l/m 0,0 km/h NW 5,9 C 8,1 C 0,0 km/h
06.05.2010 03:00 7,6 C 88 % 1001,0 hPa 0,0 l/m 0,0 km/h W 5,7 C 7,6 C 0,0 km/h
06.05.2010 04:00 7,0 C 91 % 1000,6 hPa 0,0 l/m 0,0 km/h W-NW 5,6 C 7,0 C 0,0 km/h
06.05.2010 05:00 6,9 C 91 % 1000,4 hPa 0,0 l/m 0,0 km/h W 5,5 C 6,9 C 0,0 km/h
06.05.2010 06:00 6,8 C 92 % 1000,7 hPa 0,0 l/m 1,3 km/h W-SW 5,6 C 6,8 C 0,7 km/h
06.05.2010 07:00 6,6 C 92 % 1001,0 hPa 0,4 l/m 0,0 km/h W 5,4 C 6,6 C 0,0 km/h
06.05.2010 08:00 6,8 C 92 % 1001,1 hPa 0,0 l/m 0,0 km/h W 5,6 C 6,8 C 0,0 km/h
06.05.2010 09:00 7,1 C 92 % 1001,0 hPa 0,0 l/m 0,0 km/h W 5,9 C 7,1 C 0,0 km/h
06.05.2010 10:00 7,9 C 91 % 1001,1 hPa 0,0 l/m 0,0 km/h W-SW 6,5 C 7,9 C 0,0 km/h
06.05.2010 11:00 8,2 C 91 % 1001,1 hPa 0,4 l/m 0,0 km/h W-NW 6,8 C 8,2 C 0,0 km/h
06.05.2010 12:00 7,9 C 91 % 1001,2 hPa 0,7 l/m 0,0 km/h SW 6,5 C 7,9 C 0,0 km/h
06.05.2010 13:00 8,1 C 92 % 1001,0 hPa 0,4 l/m 13,0 km/h W 6,9 C 3,8 C 7,2 km/h
06.05.2010 14:00 8,4 C 91 % 1001,3 hPa 0,4 l/m 18,8 km/h S-SW 7,0 C 1,6 C 10,4 km/h
06.05.2010 15:00 8,1 C 91 % 1001,5 hPa 0,7 l/m 11,0 km/h W-SW 6,7 C 4,9 C 6,1 km/h
06.05.2010 16:00 7,8 C 92 % 1001,9 hPa 1,1 l/m 0,0 km/h SW 6,6 C 7,8 C 0,0 km/h
06.05.2010 17:00 7,9 C 92 % 1002,5 hPa 1,1 l/m 22,0 km/h W-SW 6,7 C -0,1 C 12,2 km/h
06.05.2010 18:00 7,4 C 92 % 1002,7 hPa 0,7 l/m 6,5 km/h W-SW 6,2 C 7,3 C 3,6 km/h
06.05.2010 19:00 7,1 C 93 % 1002,9 hPa 1,1 l/m 14,9 km/h SW 6,0 C 1,7 C 8,3 km/h
06.05.2010 20:00 6,5 C 93 % 1003,5 hPa 1,1 l/m 25,9 km/h SW 5,5 C -3,2 C 14,4 km/h
06.05.2010 21:00 6,1 C 93 % 1003,8 hPa 0,7 l/m 14,3 km/h S-SW 5,1 C 0,8 C 7,9 km/h
06.05.2010 22:00 5,8 C 93 % 1004,1 hPa 0,4 l/m 1,9 km/h SW 4,8 C 5,8 C 1,1 km/h
06.05.2010 23:00 5,6 C 93 % 1004,1 hPa 0,7 l/m 12,3 km/h S-SW 4,6 C 1,3 C 6,8 km/h
07.05.2010 00:00 5,6 C 93 % 1004,0 hPa 0,0 l/m 11,0 km/h S-SW 4,6 C 2,1 C 6,1 km/h
07.05.2010 01:00 5,6 C 93 % 1003,9 hPa 0,4 l/m 10,4 km/h W 4,6 C 2,5 C 5,8 km/h
07.05.2010 02:00 5,6 C 93 % 1003,8 hPa 0,0 l/m 17,5 km/h W-SW 4,6 C -1,4 C 9,7 km/h
07.05.2010 03:00 5,8 C 93 % 1003,8 hPa 0,4 l/m 16,8 km/h SW 4,8 C -0,8 C 9,4 km/h
07.05.2010 04:00 5,8 C 94 % 1004,2 hPa 0,4 l/m 13,0 km/h W-SW 4,9 C 1,1 C 7,2 km/h
07.05.2010 05:00 5,9 C 94 % 1004,5 hPa 0,4 l/m 11,7 km/h W 5,0 C 2,0 C 6,5 km/h
07.05.2010 06:00 6,1 C 94 % 1004,9 hPa 0,0 l/m 13,6 km/h SW 5,2 C 1,1 C 7,6 km/h
07.05.2010 07:00 6,6 C 94 % 1005,1 hPa 0,0 l/m 7,1 km/h W-SW 5,7 C 6,0 C 4,0 km/h
07.05.2010 08:00 7,3 C 94 % 1005,7 hPa 0,4 l/m 19,4 km/h S-SW 6,4 C 0,0 C 10,8 km/h
07.05.2010 09:00 8,1 C 93 % 1005,9 hPa 0,0 l/m 1,9 km/h W-SW 7,0 C 8,1 C 1,1 km/h
07.05.2010 10:00 10,6 C 85 % 1006,0 hPa 0,0 l/m 24,0 km/h SW 8,2 C 2,9 C 13,3 km/h
07.05.2010 11:00 11,2 C 79 % 1006,2 hPa 0,0 l/m 22,0 km/h W 7,7 C 4,2 C 12,2 km/h
07.05.2010 12:00 13,4 C 75 % 1006,2 hPa 0,0 l/m 22,0 km/h S-SO 9,1 C 7,2 C 12,2 km/h
07.05.2010 13:00 13,8 C 70 % 1006,1 hPa 0,0 l/m 0,0 km/h O-NO 8,4 C 13,8 C 0,0 km/h
07.05.2010 14:00 12,1 C 73 % 1006,2 hPa 0,0 l/m 0,0 km/h NO 7,4 C 12,1 C 0,0 km/h
07.05.2010 15:00 12,4 C 71 % 1006,0 hPa 0,0 l/m 0,0 km/h S-SO 7,3 C 12,4 C 0,0 km/h
07.05.2010 16:00 13,6 C 69 % 1005,8 hPa 0,0 l/m 1,9 km/h SO 8,0 C 13,6 C 1,1 km/h
07.05.2010 17:00 13,9 C 69 % 1005,7 hPa 0,0 l/m 0,0 km/h O-NO 8,3 C 13,9 C 0,0 km/h
07.05.2010 18:00 15,5 C 61 % 1005,5 hPa 0,0 l/m 1,3 km/h N-NO 8,0 C 15,5 C 0,7 km/h
07.05.2010 19:00 13,1 C 65 % 1005,8 hPa 0,0 l/m 0,0 km/h O-SO 6,7 C 13,1 C 0,0 km/h
07.05.2010 20:00 9,2 C 82 % 1006,2 hPa 0,0 l/m 0,0 km/h O-NO 6,3 C 9,2 C 0,0 km/h
07.05.2010 21:00 8,4 C 86 % 1006,8 hPa 0,0 l/m 0,0 km/h SO 6,2 C 8,4 C 0,0 km/h
07.05.2010 22:00 6,8 C 88 % 1007,0 hPa 0,0 l/m 0,0 km/h SO 5,0 C 6,8 C 0,0 km/h
07.05.2010 23:00 6,9 C 91 % 1007,0 hPa 0,0 l/m 0,0 km/h O-NO 5,5 C 6,9 C 0,0 km/h
08.05.2010 00:00 6,4 C 92 % 1007,0 hPa 0,0 l/m 0,0 km/h O-NO 5,2 C 6,4 C 0,0 km/h
08.05.2010 01:00 6,2 C 92 % 1006,8 hPa 0,0 l/m 0,0 km/h NO 5,0 C 6,2 C 0,0 km/h
08.05.2010 02:00 5,8 C 92 % 1006,7 hPa 0,0 l/m 0,0 km/h SO 4,6 C 5,8 C 0,0 km/h
08.05.2010 03:00 6,1 C 93 % 1006,7 hPa 0,0 l/m 0,0 km/h O-NO 5,1 C 6,1 C 0,0 km/h
08.05.2010 04:00 5,9 C 93 % 1006,7 hPa 0,0 l/m 0,0 km/h SO 4,9 C 5,9 C 0,0 km/h
08.05.2010 05:00 5,5 C 93 % 1006,8 hPa 0,0 l/m 0,0 km/h SO 4,5 C 5,5 C 0,0 km/h
08.05.2010 06:00 5,0 C 93 % 1007,0 hPa 0,0 l/m 0,0 km/h NO 4,0 C 5,0 C 0,0 km/h
08.05.2010 07:00 8,9 C 95 % 1007,5 hPa 0,0 l/m 0,0 km/h SO 8,1 C 8,9 C 0,0 km/h
08.05.2010 08:00 10,9 C 82 % 1007,4 hPa 0,0 l/m 0,0 km/h W 7,9 C 10,9 C 0,0 km/h
08.05.2010 09:00 18,1 C 60 % 1007,6 hPa 0,0 l/m 0,0 km/h NW 10,2 C 18,1 C 0,0 km/h
08.05.2010 10:00 20,6 C 53 % 1007,5 hPa 0,0 l/m 0,0 km/h N-NO 10,7 C 20,6 C 0,0 km/h
08.05.2010 11:00 20,3 C 49 % 1007,4 hPa 0,0 l/m 0,0 km/h W 9,2 C 20,3 C 0,0 km/h
08.05.2010 12:00 21,4 C 48 % 1007,3 hPa 0,0 l/m 8,4 km/h W-SW 9,9 C 20,7 C 4,7 km/h
08.05.2010 13:00 21,1 C 47 % 1007,3 hPa 0,0 l/m 0,0 km/h NO 9,3 C 21,1 C 0,0 km/h
08.05.2010 14:00 21,6 C 39 % 1007,4 hPa 0,0 l/m 12,3 km/h W 7,0 C 19,8 C 6,8 km/h
08.05.2010 15:00 23,9 C 39 % 1007,2 hPa 0,0 l/m 2,6 km/h O-NO 9,1 C 23,9 C 1,4 km/h
08.05.2010 16:00 26,9 C 32 % 1006,8 hPa 0,0 l/m 0,0 km/h W-NW 8,8 C 26,9 C 0,0 km/h
08.05.2010 17:00 25,4 C 33 % 1006,6 hPa 0,0 l/m 1,9 km/h O-NO 7,9 C 25,4 C 1,1 km/h
08.05.2010 18:00 24,3 C 34 % 1006,4 hPa 0,0 l/m 0,0 km/h N-NO 7,4 C 24,3 C 0,0 km/h
08.05.2010 19:00 16,8 C 50 % 1006,6 hPa 0,0 l/m 0,0 km/h S-SO 6,3 C 16,8 C 0,0 km/h
08.05.2010 20:00 12,4 C 67 % 1006,9 hPa 0,0 l/m 0,0 km/h SO 6,4 C 12,4 C 0,0 km/h
08.05.2010 21:00 9,8 C 76 % 1007,3 hPa 0,0 l/m 1,3 km/h NO 5,8 C 9,8 C 0,7 km/h
08.05.2010 22:00 10,2 C 78 % 1007,5 hPa 0,0 l/m 0,0 km/h O-NO 6,5 C 10,2 C 0,0 km/h
08.05.2010 23:00 9,6 C 80 % 1007,8 hPa 0,0 l/m 0,0 km/h W 6,3 C 9,6 C 0,0 km/h
09.05.2010 00:00 9,9 C 82 % 1008,6 hPa 0,0 l/m 22,0 km/h O 7,0 C 2,5 C 12,2 km/h
09.05.2010 01:00 9,6 C 87 % 1008,6 hPa 1,1 l/m 0,0 km/h S-SO 7,5 C 9,6 C 0,0 km/h
09.05.2010 02:00 9,5 C 89 % 1008,8 hPa 0,0 l/m 0,0 km/h O-NO 7,8 C 9,5 C 0,0 km/h
09.05.2010 03:00 9,3 C 90 % 1008,4 hPa 2,1 l/m 0,0 km/h O-NO 7,7 C 9,3 C 0,0 km/h
09.05.2010 04:00 7,9 C 91 % 1007,9 hPa 0,0 l/m 0,0 km/h O-NO 6,5 C 7,9 C 0,0 km/h
09.05.2010 05:00 8,5 C 92 % 1008,1 hPa 0,0 l/m 0,0 km/h O-NO 7,3 C 8,5 C 0,0 km/h
09.05.2010 06:00 8,9 C 92 % 1008,1 hPa 0,7 l/m 0,0 km/h O 7,7 C 8,9 C 0,0 km/h
09.05.2010 07:00 10,8 C 93 % 1007,9 hPa 0,0 l/m 0,0 km/h S-SO 9,7 C 10,8 C 0,0 km/h
09.05.2010 08:00 18,9 C 70 % 1008,0 hPa 0,0 l/m 3,2 km/h S 13,3 C 18,9 C 1,8 km/h
09.05.2010 09:00 19,6 C 61 % 1007,7 hPa 0,0 l/m 0,6 km/h S-SW 11,9 C 19,6 C 0,4 km/h
09.05.2010 10:00 19,2 C 59 % 1007,3 hPa 0,0 l/m 14,9 km/h S-SW 11,0 C 16,3 C 8,3 km/h
09.05.2010 11:00 20,2 C 57 % 1007,3 hPa 0,0 l/m 8,4 km/h W-SW 11,4 C 19,4 C 4,7 km/h
09.05.2010 12:00 19,0 C 57 % 1006,5 hPa 0,0 l/m 0,0 km/h SW 10,3 C 19,0 C 0,0 km/h
09.05.2010 13:00 20,4 C 56 % 1006,0 hPa 0,0 l/m 0,0 km/h N-NW 11,3 C 20,4 C 0,0 km/h
09.05.2010 14:00 17,4 C 55 % 1006,2 hPa 0,0 l/m 9,1 km/h SO 8,3 C 16,1 C 5,0 km/h
09.05.2010 15:00 13,3 C 75 % 1006,6 hPa 0,4 l/m 0,0 km/h S-SO 9,0 C 13,3 C 0,0 km/h
09.05.2010 16:00 13,4 C 82 % 1006,1 hPa 0,7 l/m 16,2 km/h S-SO 10,4 C 8,8 C 9,0 km/h
09.05.2010 17:00 13,8 C 82 % 1005,9 hPa 0,0 l/m 0,0 km/h S-SW 10,8 C 13,8 C 0,0 km/h
09.05.2010 18:00 13,3 C 83 % 1006,1 hPa 0,4 l/m 0,0 km/h S-SO 10,5 C 13,3 C 0,0 km/h
09.05.2010 19:00 12,1 C 88 % 1005,7 hPa 0,7 l/m 6,5 km/h S-SO 10,2 C 12,1 C 3,6 km/h
09.05.2010 20:00 11,1 C 90 % 1005,7 hPa 0,4 l/m 0,0 km/h S-SO 9,5 C 11,1 C 0,0 km/h
09.05.2010 21:00 10,5 C 91 % 1005,8 hPa 0,4 l/m 0,0 km/h S-SO 9,1 C 10,5 C 0,0 km/h
09.05.2010 22:00 10,3 C 91 % 1005,8 hPa 0,0 l/m 0,0 km/h S-SO 8,9 C 10,3 C 0,0 km/h
09.05.2010 23:00 10,1 C 92 % 1005,2 hPa 0,4 l/m 6,5 km/h NO 8,9 C 10,1 C 3,6 km/h
Min-Datum _ 08.05.10 08.05.10 06.05.10 - 03.05.10 - 05.05.10 06.05.10 03.05.10
_ Min-Zeit 06:53 16:53 05:53 - 00:53 - 12:53 20:53 00:53
Minimum _ 5,0 C 32 % 1000,4 hPa - 0,0 km/h - 3,8 C -3,2 C 0,0 km/h
Max-Datum _ 08.05.10 08.05.10 04.05.10 03.05.10 06.05.10 - 09.05.10 08.05.10 06.05.10
_ Max-Zeit 16:53 07:53 00:53 16:53 20:53 - 08:53 16:53 20:53
Maximum _ 26,9 C 95 % 1013,0 hPa 2,1 l/m 25,9 km/h
SW
- 13,3 C 26,9 C 14,4 km/h
SW
Durchschnitt _ 10,7 C 80 % 1006,9 hPa #22,1 l/m 4,1 km/h N-NO 7,1 C 9,6 C 2,3 km/h